sensor_id;sensor_type;location;lat;lon;timestamp;P1;durP1;ratioP1;P2;durP2;ratioP2
17369;SDS011;8802;52.402;4.920;2023-12-22T00:01:28;10.07;;;1.70;;
17369;SDS011;8802;52.402;4.920;2023-12-22T00:03:55;7.32;;;1.65;;
17369;SDS011;8802;52.402;4.920;2023-12-22T00:06:22;11.82;;;2.13;;
17369;SDS011;8802;52.402;4.920;2023-12-22T00:08:48;11.68;;;2.40;;
17369;SDS011;8802;52.402;4.920;2023-12-22T00:11:16;11.63;;;2.10;;
17369;SDS011;8802;52.402;4.920;2023-12-22T00:13:44;14.30;;;2.25;;
17369;SDS011;8802;52.402;4.920;2023-12-22T00:16:11;12.13;;;2.20;;
17369;SDS011;8802;52.402;4.920;2023-12-22T00:18:38;11.38;;;2.17;;
17369;SDS011;8802;52.402;4.920;2023-12-22T00:21:07;7.63;;;1.63;;
17369;SDS011;8802;52.402;4.920;2023-12-22T00:23:35;11.90;;;1.92;;
17369;SDS011;8802;52.402;4.920;2023-12-22T00:26:03;9.07;;;1.95;;
17369;SDS011;8802;52.402;4.920;2023-12-22T00:28:30;10.35;;;1.77;;
17369;SDS011;8802;52.402;4.920;2023-12-22T00:31:01;6.70;;;1.30;;
17369;SDS011;8802;52.402;4.920;2023-12-22T00:33:28;9.00;;;1.52;;
17369;SDS011;8802;52.402;4.920;2023-12-22T00:35:55;8.48;;;1.55;;
17369;SDS011;8802;52.402;4.920;2023-12-22T00:38:22;8.18;;;1.58;;
17369;SDS011;8802;52.402;4.920;2023-12-22T00:40:49;7.05;;;1.48;;
17369;SDS011;8802;52.402;4.920;2023-12-22T00:43:15;6.40;;;1.20;;
17369;SDS011;8802;52.402;4.920;2023-12-22T00:45:42;12.10;;;1.85;;
17369;SDS011;8802;52.402;4.920;2023-12-22T00:48:10;7.38;;;1.35;;
17369;SDS011;8802;52.402;4.920;2023-12-22T00:50:37;10.68;;;1.45;;
17369;SDS011;8802;52.402;4.920;2023-12-22T00:53:04;4.60;;;1.42;;
17369;SDS011;8802;52.402;4.920;2023-12-22T00:55:31;6.13;;;1.88;;
17369;SDS011;8802;52.402;4.920;2023-12-22T00:57:58;11.35;;;2.13;;
17369;SDS011;8802;52.402;4.920;2023-12-22T01:00:25;5.38;;;1.40;;
17369;SDS011;8802;52.402;4.920;2023-12-22T01:02:52;10.88;;;2.03;;
17369;SDS011;8802;52.402;4.920;2023-12-22T01:05:20;10.50;;;2.28;;
17369;SDS011;8802;52.402;4.920;2023-12-22T01:07:47;6.03;;;1.85;;
17369;SDS011;8802;52.402;4.920;2023-12-22T01:10:14;10.23;;;1.70;;
17369;SDS011;8802;52.402;4.920;2023-12-22T01:12:40;8.65;;;1.83;;
17369;SDS011;8802;52.402;4.920;2023-12-22T01:15:07;9.20;;;2.22;;
17369;SDS011;8802;52.402;4.920;2023-12-22T01:17:33;12.93;;;2.45;;
17369;SDS011;8802;52.402;4.920;2023-12-22T01:20:00;14.65;;;2.60;;
17369;SDS011;8802;52.402;4.920;2023-12-22T01:22:29;10.65;;;2.28;;
17369;SDS011;8802;52.402;4.920;2023-12-22T01:24:57;13.38;;;2.75;;
17369;SDS011;8802;52.402;4.920;2023-12-22T01:27:24;13.30;;;2.40;;
17369;SDS011;8802;52.402;4.920;2023-12-22T01:29:50;13.52;;;2.35;;
17369;SDS011;8802;52.402;4.920;2023-12-22T01:32:17;11.35;;;2.58;;
17369;SDS011;8802;52.402;4.920;2023-12-22T01:34:44;11.73;;;2.40;;
17369;SDS011;8802;52.402;4.920;2023-12-22T01:37:11;16.13;;;2.78;;
17369;SDS011;8802;52.402;4.920;2023-12-22T01:39:39;16.13;;;3.88;;
17369;SDS011;8802;52.402;4.920;2023-12-22T01:42:06;12.10;;;2.75;;
17369;SDS011;8802;52.402;4.920;2023-12-22T01:44:33;17.63;;;3.22;;
17369;SDS011;8802;52.402;4.920;2023-12-22T01:47:00;14.43;;;3.25;;
17369;SDS011;8802;52.402;4.920;2023-12-22T01:49:27;12.40;;;2.95;;
17369;SDS011;8802;52.402;4.920;2023-12-22T01:51:54;17.58;;;3.47;;
17369;SDS011;8802;52.402;4.920;2023-12-22T01:54:21;19.15;;;3.63;;
17369;SDS011;8802;52.402;4.920;2023-12-22T01:56:49;21.48;;;3.75;;
17369;SDS011;8802;52.402;4.920;2023-12-22T01:59:16;16.98;;;3.42;;
17369;SDS011;8802;52.402;4.920;2023-12-22T02:01:43;15.30;;;3.85;;
17369;SDS011;8802;52.402;4.920;2023-12-22T02:04:11;16.63;;;4.07;;
17369;SDS011;8802;52.402;4.920;2023-12-22T02:06:38;19.38;;;4.45;;
17369;SDS011;8802;52.402;4.920;2023-12-22T02:09:05;17.45;;;4.72;;
17369;SDS011;8802;52.402;4.920;2023-12-22T02:11:32;18.45;;;3.63;;
17369;SDS011;8802;52.402;4.920;2023-12-22T02:14:00;17.55;;;3.75;;
17369;SDS011;8802;52.402;4.920;2023-12-22T02:16:30;15.05;;;3.53;;
17369;SDS011;8802;52.402;4.920;2023-12-22T02:19:04;15.73;;;2.95;;
17369;SDS011;8802;52.402;4.920;2023-12-22T02:21:37;19.67;;;4.30;;
17369;SDS011;8802;52.402;4.920;2023-12-22T02:24:29;19.80;;;3.92;;
17369;SDS011;8802;52.402;4.920;2023-12-22T02:26:57;20.45;;;3.75;;
17369;SDS011;8802;52.402;4.920;2023-12-22T02:29:29;22.90;;;4.55;;
17369;SDS011;8802;52.402;4.920;2023-12-22T02:31:59;15.57;;;3.83;;
17369;SDS011;8802;52.402;4.920;2023-12-22T02:34:29;12.80;;;4.13;;
17369;SDS011;8802;52.402;4.920;2023-12-22T02:36:57;15.82;;;4.28;;
17369;SDS011;8802;52.402;4.920;2023-12-22T02:39:24;15.73;;;3.35;;
17369;SDS011;8802;52.402;4.920;2023-12-22T02:41:52;15.63;;;3.60;;
17369;SDS011;8802;52.402;4.920;2023-12-22T02:44:19;17.55;;;3.35;;
17369;SDS011;8802;52.402;4.920;2023-12-22T02:46:46;16.17;;;3.72;;
17369;SDS011;8802;52.402;4.920;2023-12-22T02:49:14;15.52;;;4.07;;
17369;SDS011;8802;52.402;4.920;2023-12-22T02:51:42;14.40;;;2.97;;
17369;SDS011;8802;52.402;4.920;2023-12-22T02:54:09;20.63;;;3.78;;
17369;SDS011;8802;52.402;4.920;2023-12-22T02:56:35;17.50;;;3.67;;
17369;SDS011;8802;52.402;4.920;2023-12-22T02:59:04;14.35;;;3.33;;
17369;SDS011;8802;52.402;4.920;2023-12-22T03:01:30;11.60;;;3.00;;
17369;SDS011;8802;52.402;4.920;2023-12-22T03:03:57;18.00;;;3.78;;
17369;SDS011;8802;52.402;4.920;2023-12-22T03:06:24;13.93;;;3.13;;
17369;SDS011;8802;52.402;4.920;2023-12-22T03:08:51;19.17;;;4.30;;
17369;SDS011;8802;52.402;4.920;2023-12-22T03:11:18;15.57;;;3.33;;
17369;SDS011;8802;52.402;4.920;2023-12-22T03:13:45;13.07;;;3.47;;
17369;SDS011;8802;52.402;4.920;2023-12-22T03:16:13;11.25;;;2.90;;
17369;SDS011;8802;52.402;4.920;2023-12-22T03:18:40;10.05;;;2.45;;
17369;SDS011;8802;52.402;4.920;2023-12-22T03:21:07;9.10;;;2.40;;
17369;SDS011;8802;52.402;4.920;2023-12-22T03:23:43;9.45;;;1.98;;
17369;SDS011;8802;52.402;4.920;2023-12-22T03:26:10;6.00;;;1.50;;
17369;SDS011;8802;52.402;4.920;2023-12-22T03:28:37;7.95;;;1.70;;
17369;SDS011;8802;52.402;4.920;2023-12-22T03:31:05;9.32;;;1.40;;
17369;SDS011;8802;52.402;4.920;2023-12-22T03:33:34;4.60;;;1.00;;
17369;SDS011;8802;52.402;4.920;2023-12-22T03:36:01;4.50;;;1.52;;
17369;SDS011;8802;52.402;4.920;2023-12-22T03:38:28;8.07;;;1.60;;
17369;SDS011;8802;52.402;4.920;2023-12-22T03:40:55;5.82;;;1.65;;
17369;SDS011;8802;52.402;4.920;2023-12-22T03:43:21;10.75;;;2.22;;
17369;SDS011;8802;52.402;4.920;2023-12-22T03:45:48;8.63;;;2.10;;
17369;SDS011;8802;52.402;4.920;2023-12-22T03:48:15;12.85;;;3.08;;
17369;SDS011;8802;52.402;4.920;2023-12-22T03:50:43;16.90;;;3.00;;
17369;SDS011;8802;52.402;4.920;2023-12-22T03:53:10;8.88;;;2.03;;
17369;SDS011;8802;52.402;4.920;2023-12-22T03:55:37;11.75;;;2.88;;
17369;SDS011;8802;52.402;4.920;2023-12-22T03:58:04;13.43;;;2.72;;
17369;SDS011;8802;52.402;4.920;2023-12-22T04:00:32;14.85;;;2.63;;
17369;SDS011;8802;52.402;4.920;2023-12-22T04:02:59;14.35;;;3.00;;
17369;SDS011;8802;52.402;4.920;2023-12-22T04:05:27;13.68;;;2.70;;
17369;SDS011;8802;52.402;4.920;2023-12-22T04:07:56;16.80;;;3.80;;
17369;SDS011;8802;52.402;4.920;2023-12-22T04:10:25;16.38;;;3.25;;
17369;SDS011;8802;52.402;4.920;2023-12-22T04:12:52;16.65;;;4.05;;
17369;SDS011;8802;52.402;4.920;2023-12-22T04:15:19;19.98;;;3.50;;
17369;SDS011;8802;52.402;4.920;2023-12-22T04:17:45;13.45;;;3.70;;
17369;SDS011;8802;52.402;4.920;2023-12-22T04:20:12;13.45;;;3.03;;
17369;SDS011;8802;52.402;4.920;2023-12-22T04:22:40;13.60;;;3.20;;
17369;SDS011;8802;52.402;4.920;2023-12-22T04:25:08;16.63;;;3.25;;
17369;SDS011;8802;52.402;4.920;2023-12-22T04:27:36;7.22;;;2.55;;
17369;SDS011;8802;52.402;4.920;2023-12-22T04:30:03;18.08;;;4.43;;
17369;SDS011;8802;52.402;4.920;2023-12-22T04:32:31;13.05;;;2.85;;
17369;SDS011;8802;52.402;4.920;2023-12-22T04:34:58;15.48;;;3.60;;
17369;SDS011;8802;52.402;4.920;2023-12-22T04:37:25;16.10;;;2.65;;
17369;SDS011;8802;52.402;4.920;2023-12-22T04:39:52;13.57;;;2.72;;
17369;SDS011;8802;52.402;4.920;2023-12-22T04:42:20;13.40;;;3.50;;
17369;SDS011;8802;52.402;4.920;2023-12-22T04:44:47;13.65;;;3.47;;
17369;SDS011;8802;52.402;4.920;2023-12-22T04:47:14;17.30;;;3.95;;
17369;SDS011;8802;52.402;4.920;2023-12-22T04:49:41;19.65;;;3.42;;
17369;SDS011;8802;52.402;4.920;2023-12-22T04:52:08;19.95;;;3.80;;
17369;SDS011;8802;52.402;4.920;2023-12-22T04:54:34;14.50;;;3.38;;
17369;SDS011;8802;52.402;4.920;2023-12-22T04:57:01;13.55;;;2.90;;
17369;SDS011;8802;52.402;4.920;2023-12-22T04:59:30;15.90;;;3.85;;
17369;SDS011;8802;52.402;4.920;2023-12-22T05:01:57;18.00;;;3.25;;
17369;SDS011;8802;52.402;4.920;2023-12-22T05:04:24;12.35;;;3.40;;
17369;SDS011;8802;52.402;4.920;2023-12-22T05:06:51;14.20;;;3.30;;
17369;SDS011;8802;52.402;4.920;2023-12-22T05:09:17;13.13;;;3.97;;
17369;SDS011;8802;52.402;4.920;2023-12-22T05:11:44;15.25;;;3.38;;
17369;SDS011;8802;52.402;4.920;2023-12-22T05:14:11;9.43;;;2.47;;
17369;SDS011;8802;52.402;4.920;2023-12-22T05:16:39;16.25;;;3.28;;
17369;SDS011;8802;52.402;4.920;2023-12-22T05:19:06;14.18;;;3.10;;
17369;SDS011;8802;52.402;4.920;2023-12-22T05:21:34;12.85;;;2.75;;
17369;SDS011;8802;52.402;4.920;2023-12-22T05:24:03;9.50;;;2.63;;
17369;SDS011;8802;52.402;4.920;2023-12-22T05:26:30;17.17;;;2.78;;
17369;SDS011;8802;52.402;4.920;2023-12-22T05:28:57;14.63;;;3.08;;
17369;SDS011;8802;52.402;4.920;2023-12-22T05:31:24;13.75;;;3.10;;
17369;SDS011;8802;52.402;4.920;2023-12-22T05:33:54;15.02;;;3.22;;
17369;SDS011;8802;52.402;4.920;2023-12-22T05:36:21;9.27;;;3.10;;
17369;SDS011;8802;52.402;4.920;2023-12-22T05:38:47;15.38;;;2.80;;
17369;SDS011;8802;52.402;4.920;2023-12-22T05:41:14;14.45;;;3.60;;
17369;SDS011;8802;52.402;4.920;2023-12-22T05:43:41;12.20;;;2.63;;
17369;SDS011;8802;52.402;4.920;2023-12-22T05:46:08;10.05;;;2.20;;
17369;SDS011;8802;52.402;4.920;2023-12-22T05:48:35;13.25;;;3.08;;
17369;SDS011;8802;52.402;4.920;2023-12-22T05:51:04;12.70;;;3.00;;
17369;SDS011;8802;52.402;4.920;2023-12-22T05:53:32;19.70;;;4.25;;
17369;SDS011;8802;52.402;4.920;2023-12-22T05:55:59;16.10;;;3.40;;
17369;SDS011;8802;52.402;4.920;2023-12-22T05:58:26;10.45;;;2.80;;
17369;SDS011;8802;52.402;4.920;2023-12-22T06:00:53;10.25;;;2.92;;
17369;SDS011;8802;52.402;4.920;2023-12-22T06:03:20;15.35;;;2.78;;
17369;SDS011;8802;52.402;4.920;2023-12-22T06:05:46;17.50;;;3.17;;
17369;SDS011;8802;52.402;4.920;2023-12-22T06:08:16;15.38;;;3.08;;
17369;SDS011;8802;52.402;4.920;2023-12-22T06:10:44;13.40;;;3.42;;
17369;SDS011;8802;52.402;4.920;2023-12-22T06:13:11;16.85;;;3.22;;
17369;SDS011;8802;52.402;4.920;2023-12-22T06:15:38;14.65;;;2.97;;
17369;SDS011;8802;52.402;4.920;2023-12-22T06:18:05;16.90;;;4.50;;
17369;SDS011;8802;52.402;4.920;2023-12-22T06:20:32;19.83;;;4.03;;
17369;SDS011;8802;52.402;4.920;2023-12-22T06:22:59;10.00;;;3.08;;
17369;SDS011;8802;52.402;4.920;2023-12-22T06:25:27;19.42;;;3.60;;
17369;SDS011;8802;52.402;4.920;2023-12-22T06:27:54;15.48;;;4.40;;
17369;SDS011;8802;52.402;4.920;2023-12-22T06:30:21;15.38;;;3.45;;
17369;SDS011;8802;52.402;4.920;2023-12-22T06:32:48;13.77;;;3.72;;
17369;SDS011;8802;52.402;4.920;2023-12-22T06:35:15;20.60;;;4.32;;
17369;SDS011;8802;52.402;4.920;2023-12-22T06:37:42;14.70;;;4.07;;
17369;SDS011;8802;52.402;4.920;2023-12-22T06:40:09;16.80;;;4.80;;
17369;SDS011;8802;52.402;4.920;2023-12-22T06:42:38;18.15;;;4.55;;
17369;SDS011;8802;52.402;4.920;2023-12-22T06:45:05;24.33;;;4.13;;
17369;SDS011;8802;52.402;4.920;2023-12-22T06:47:33;18.60;;;4.35;;
17369;SDS011;8802;52.402;4.920;2023-12-22T06:50:01;14.68;;;3.22;;
17369;SDS011;8802;52.402;4.920;2023-12-22T06:52:28;17.67;;;4.07;;
17369;SDS011;8802;52.402;4.920;2023-12-22T06:54:56;16.90;;;3.72;;
17369;SDS011;8802;52.402;4.920;2023-12-22T06:57:23;16.15;;;3.67;;
17369;SDS011;8802;52.402;4.920;2023-12-22T06:59:51;22.73;;;4.20;;
17369;SDS011;8802;52.402;4.920;2023-12-22T07:02:18;15.52;;;3.88;;
17369;SDS011;8802;52.402;4.920;2023-12-22T07:05:00;14.38;;;4.40;;
17369;SDS011;8802;52.402;4.920;2023-12-22T07:07:32;20.60;;;4.45;;
17369;SDS011;8802;52.402;4.920;2023-12-22T07:09:59;20.33;;;4.72;;
17369;SDS011;8802;52.402;4.920;2023-12-22T07:12:26;19.83;;;4.15;;
17369;SDS011;8802;52.402;4.920;2023-12-22T07:14:54;21.92;;;4.15;;
17369;SDS011;8802;52.402;4.920;2023-12-22T07:17:21;17.00;;;3.92;;
17369;SDS011;8802;52.402;4.920;2023-12-22T07:19:48;17.25;;;4.32;;
17369;SDS011;8802;52.402;4.920;2023-12-22T07:22:17;21.20;;;4.20;;
17369;SDS011;8802;52.402;4.920;2023-12-22T07:24:44;20.00;;;4.75;;
17369;SDS011;8802;52.402;4.920;2023-12-22T07:27:11;14.57;;;4.45;;
17369;SDS011;8802;52.402;4.920;2023-12-22T07:29:38;19.08;;;4.85;;
17369;SDS011;8802;52.402;4.920;2023-12-22T07:32:07;18.35;;;5.13;;
17369;SDS011;8802;52.402;4.920;2023-12-22T07:34:33;16.27;;;5.10;;
17369;SDS011;8802;52.402;4.920;2023-12-22T07:37:00;22.77;;;5.07;;
17369;SDS011;8802;52.402;4.920;2023-12-22T07:39:27;22.92;;;6.05;;
17369;SDS011;8802;52.402;4.920;2023-12-22T07:41:54;27.25;;;5.85;;
17369;SDS011;8802;52.402;4.920;2023-12-22T07:44:21;23.88;;;5.68;;
17369;SDS011;8802;52.402;4.920;2023-12-22T07:46:55;20.65;;;5.38;;
17369;SDS011;8802;52.402;4.920;2023-12-22T07:49:25;21.80;;;5.07;;
17369;SDS011;8802;52.402;4.920;2023-12-22T07:51:52;19.98;;;5.45;;
17369;SDS011;8802;52.402;4.920;2023-12-22T07:54:19;19.98;;;5.50;;
17369;SDS011;8802;52.402;4.920;2023-12-22T07:56:46;21.45;;;6.03;;
17369;SDS011;8802;52.402;4.920;2023-12-22T07:59:13;20.00;;;5.93;;
17369;SDS011;8802;52.402;4.920;2023-12-22T08:01:40;20.60;;;5.00;;
17369;SDS011;8802;52.402;4.920;2023-12-22T08:04:08;18.90;;;4.65;;
17369;SDS011;8802;52.402;4.920;2023-12-22T08:06:36;17.00;;;4.82;;
17369;SDS011;8802;52.402;4.920;2023-12-22T08:09:03;17.35;;;4.00;;
17369;SDS011;8802;52.402;4.920;2023-12-22T08:11:31;15.23;;;4.10;;
17369;SDS011;8802;52.402;4.920;2023-12-22T08:13:58;12.85;;;4.00;;
17369;SDS011;8802;52.402;4.920;2023-12-22T08:16:24;17.25;;;4.30;;
17369;SDS011;8802;52.402;4.920;2023-12-22T08:18:51;14.32;;;3.83;;
17369;SDS011;8802;52.402;4.920;2023-12-22T08:21:19;16.90;;;4.38;;
17369;SDS011;8802;52.402;4.920;2023-12-22T08:23:48;20.80;;;4.57;;
17369;SDS011;8802;52.402;4.920;2023-12-22T08:26:15;24.08;;;4.20;;
17369;SDS011;8802;52.402;4.920;2023-12-22T08:28:44;17.23;;;4.22;;
17369;SDS011;8802;52.402;4.920;2023-12-22T08:31:11;18.15;;;4.53;;
17369;SDS011;8802;52.402;4.920;2023-12-22T08:33:38;17.48;;;3.47;;
17369;SDS011;8802;52.402;4.920;2023-12-22T08:36:08;20.30;;;4.22;;
17369;SDS011;8802;52.402;4.920;2023-12-22T08:38:35;21.38;;;4.25;;
17369;SDS011;8802;52.402;4.920;2023-12-22T08:41:06;14.02;;;4.25;;
17369;SDS011;8802;52.402;4.920;2023-12-22T08:43:34;15.00;;;4.50;;
17369;SDS011;8802;52.402;4.920;2023-12-22T08:46:00;14.68;;;4.15;;
17369;SDS011;8802;52.402;4.920;2023-12-22T08:48:27;17.35;;;4.32;;
17369;SDS011;8802;52.402;4.920;2023-12-22T08:50:54;15.40;;;3.65;;
17369;SDS011;8802;52.402;4.920;2023-12-22T08:53:21;14.00;;;4.07;;
17369;SDS011;8802;52.402;4.920;2023-12-22T08:55:48;13.52;;;3.70;;
17369;SDS011;8802;52.402;4.920;2023-12-22T08:58:17;13.10;;;3.40;;
17369;SDS011;8802;52.402;4.920;2023-12-22T09:00:44;11.80;;;3.67;;
17369;SDS011;8802;52.402;4.920;2023-12-22T09:03:11;14.15;;;3.92;;
17369;SDS011;8802;52.402;4.920;2023-12-22T09:05:38;10.02;;;3.45;;
17369;SDS011;8802;52.402;4.920;2023-12-22T09:08:05;11.55;;;2.75;;
17369;SDS011;8802;52.402;4.920;2023-12-22T09:10:32;9.88;;;2.22;;
17369;SDS011;8802;52.402;4.920;2023-12-22T09:13:00;7.90;;;1.52;;
17369;SDS011;8802;52.402;4.920;2023-12-22T09:15:28;5.63;;;1.40;;
17369;SDS011;8802;52.402;4.920;2023-12-22T09:17:55;7.10;;;2.00;;
17369;SDS011;8802;52.402;4.920;2023-12-22T09:20:22;4.95;;;1.30;;
17369;SDS011;8802;52.402;4.920;2023-12-22T09:22:49;4.85;;;1.38;;
17369;SDS011;8802;52.402;4.920;2023-12-22T09:25:16;7.13;;;1.48;;
17369;SDS011;8802;52.402;4.920;2023-12-22T09:27:44;9.93;;;2.05;;
17369;SDS011;8802;52.402;4.920;2023-12-22T09:30:11;13.50;;;2.88;;
17369;SDS011;8802;52.402;4.920;2023-12-22T09:32:40;12.13;;;2.97;;
17369;SDS011;8802;52.402;4.920;2023-12-22T09:35:07;22.98;;;3.97;;
17369;SDS011;8802;52.402;4.920;2023-12-22T09:37:34;10.10;;;2.60;;
17369;SDS011;8802;52.402;4.920;2023-12-22T09:40:01;10.75;;;2.92;;
17369;SDS011;8802;52.402;4.920;2023-12-22T09:42:27;6.78;;;2.20;;
17369;SDS011;8802;52.402;4.920;2023-12-22T09:44:55;13.32;;;2.97;;
17369;SDS011;8802;52.402;4.920;2023-12-22T09:47:24;11.13;;;2.30;;
17369;SDS011;8802;52.402;4.920;2023-12-22T09:49:55;14.18;;;2.47;;
17369;SDS011;8802;52.402;4.920;2023-12-22T09:52:24;9.02;;;2.17;;
17369;SDS011;8802;52.402;4.920;2023-12-22T09:54:52;12.60;;;2.35;;
17369;SDS011;8802;52.402;4.920;2023-12-22T09:57:20;8.13;;;2.00;;
17369;SDS011;8802;52.402;4.920;2023-12-22T09:59:49;9.18;;;2.10;;
17369;SDS011;8802;52.402;4.920;2023-12-22T10:02:18;14.05;;;2.53;;
17369;SDS011;8802;52.402;4.920;2023-12-22T10:04:45;8.85;;;2.00;;
17369;SDS011;8802;52.402;4.920;2023-12-22T10:07:14;7.38;;;1.65;;
17369;SDS011;8802;52.402;4.920;2023-12-22T10:09:43;12.30;;;2.67;;
17369;SDS011;8802;52.402;4.920;2023-12-22T10:12:12;8.70;;;2.15;;
17369;SDS011;8802;52.402;4.920;2023-12-22T10:14:40;10.68;;;2.47;;
17369;SDS011;8802;52.402;4.920;2023-12-22T10:17:07;12.95;;;2.50;;
17369;SDS011;8802;52.402;4.920;2023-12-22T10:19:34;12.52;;;2.22;;
17369;SDS011;8802;52.402;4.920;2023-12-22T10:22:01;9.57;;;1.85;;
17369;SDS011;8802;52.402;4.920;2023-12-22T10:24:39;9.43;;;2.20;;
17369;SDS011;8802;52.402;4.920;2023-12-22T10:27:08;14.52;;;2.72;;
17369;SDS011;8802;52.402;4.920;2023-12-22T10:29:36;10.55;;;2.67;;
17369;SDS011;8802;52.402;4.920;2023-12-22T10:32:03;16.08;;;2.30;;
17369;SDS011;8802;52.402;4.920;2023-12-22T10:34:31;12.90;;;2.40;;
17369;SDS011;8802;52.402;4.920;2023-12-22T10:36:58;8.98;;;2.30;;
17369;SDS011;8802;52.402;4.920;2023-12-22T10:39:26;9.32;;;2.50;;
17369;SDS011;8802;52.402;4.920;2023-12-22T10:41:55;11.20;;;2.20;;
17369;SDS011;8802;52.402;4.920;2023-12-22T10:44:23;10.27;;;2.83;;
17369;SDS011;8802;52.402;4.920;2023-12-22T10:46:50;10.85;;;2.00;;
17369;SDS011;8802;52.402;4.920;2023-12-22T10:49:17;11.52;;;2.40;;
17369;SDS011;8802;52.402;4.920;2023-12-22T10:51:45;11.20;;;2.08;;
17369;SDS011;8802;52.402;4.920;2023-12-22T10:54:12;8.77;;;2.58;;
17369;SDS011;8802;52.402;4.920;2023-12-22T10:56:39;12.40;;;2.58;;
17369;SDS011;8802;52.402;4.920;2023-12-22T10:59:09;9.75;;;2.15;;
17369;SDS011;8802;52.402;4.920;2023-12-22T11:01:36;8.65;;;2.20;;
17369;SDS011;8802;52.402;4.920;2023-12-22T11:04:05;7.68;;;2.00;;
17369;SDS011;8802;52.402;4.920;2023-12-22T11:06:34;9.95;;;2.17;;
17369;SDS011;8802;52.402;4.920;2023-12-22T11:09:03;8.82;;;2.20;;
17369;SDS011;8802;52.402;4.920;2023-12-22T11:11:34;13.15;;;2.53;;
17369;SDS011;8802;52.402;4.920;2023-12-22T11:14:03;9.20;;;2.10;;
17369;SDS011;8802;52.402;4.920;2023-12-22T11:16:32;6.63;;;1.90;;
17369;SDS011;8802;52.402;4.920;2023-12-22T11:19:00;9.80;;;1.90;;
17369;SDS011;8802;52.402;4.920;2023-12-22T11:21:29;8.52;;;2.05;;
17369;SDS011;8802;52.402;4.920;2023-12-22T11:23:57;9.98;;;2.53;;
17369;SDS011;8802;52.402;4.920;2023-12-22T11:26:25;12.68;;;2.28;;
17369;SDS011;8802;52.402;4.920;2023-12-22T11:28:52;7.18;;;2.00;;
17369;SDS011;8802;52.402;4.920;2023-12-22T11:31:19;11.57;;;2.17;;
17369;SDS011;8802;52.402;4.920;2023-12-22T11:33:49;10.90;;;2.35;;
17369;SDS011;8802;52.402;4.920;2023-12-22T11:36:17;7.90;;;1.98;;
17369;SDS011;8802;52.402;4.920;2023-12-22T11:38:45;11.85;;;2.58;;
17369;SDS011;8802;52.402;4.920;2023-12-22T11:41:13;8.23;;;1.75;;
17369;SDS011;8802;52.402;4.920;2023-12-22T11:43:43;8.38;;;2.05;;
17369;SDS011;8802;52.402;4.920;2023-12-22T11:46:11;9.27;;;2.10;;
17369;SDS011;8802;52.402;4.920;2023-12-22T11:48:38;10.15;;;2.08;;
17369;SDS011;8802;52.402;4.920;2023-12-22T11:51:16;10.57;;;2.20;;
17369;SDS011;8802;52.402;4.920;2023-12-22T11:53:43;10.57;;;2.50;;
17369;SDS011;8802;52.402;4.920;2023-12-22T11:56:11;9.68;;;2.00;;
17369;SDS011;8802;52.402;4.920;2023-12-22T11:58:39;8.20;;;1.88;;
17369;SDS011;8802;52.402;4.920;2023-12-22T12:01:08;12.32;;;2.35;;
17369;SDS011;8802;52.402;4.920;2023-12-22T12:03:37;11.02;;;2.08;;
17369;SDS011;8802;52.402;4.920;2023-12-22T12:06:11;11.93;;;2.17;;
17369;SDS011;8802;52.402;4.920;2023-12-22T12:08:41;11.23;;;2.15;;
17369;SDS011;8802;52.402;4.920;2023-12-22T12:11:08;7.25;;;2.35;;
17369;SDS011;8802;52.402;4.920;2023-12-22T12:13:35;10.32;;;2.08;;
17369;SDS011;8802;52.402;4.920;2023-12-22T12:16:11;13.05;;;2.75;;
17369;SDS011;8802;52.402;4.920;2023-12-22T12:18:38;14.70;;;2.40;;
17369;SDS011;8802;52.402;4.920;2023-12-22T12:21:06;10.68;;;2.10;;
17369;SDS011;8802;52.402;4.920;2023-12-22T12:23:35;8.23;;;2.20;;
17369;SDS011;8802;52.402;4.920;2023-12-22T12:26:02;14.45;;;2.30;;
17369;SDS011;8802;52.402;4.920;2023-12-22T12:28:30;13.38;;;2.42;;
17369;SDS011;8802;52.402;4.920;2023-12-22T12:30:58;10.88;;;2.75;;
17369;SDS011;8802;52.402;4.920;2023-12-22T12:33:27;11.77;;;2.28;;
17369;SDS011;8802;52.402;4.920;2023-12-22T12:36:09;10.60;;;2.50;;
17369;SDS011;8802;52.402;4.920;2023-12-22T12:38:42;9.50;;;2.20;;
17369;SDS011;8802;52.402;4.920;2023-12-22T12:41:14;8.90;;;2.22;;
17369;SDS011;8802;52.402;4.920;2023-12-22T12:43:42;12.40;;;2.40;;
17369;SDS011;8802;52.402;4.920;2023-12-22T12:46:09;9.30;;;1.98;;
17369;SDS011;8802;52.402;4.920;2023-12-22T12:48:36;11.82;;;2.17;;
17369;SDS011;8802;52.402;4.920;2023-12-22T12:51:04;15.25;;;2.42;;
17369;SDS011;8802;52.402;4.920;2023-12-22T12:53:32;8.73;;;1.98;;
17369;SDS011;8802;52.402;4.920;2023-12-22T12:56:01;10.35;;;2.30;;
17369;SDS011;8802;52.402;4.920;2023-12-22T12:58:28;9.93;;;2.20;;
17369;SDS011;8802;52.402;4.920;2023-12-22T13:01:03;10.57;;;2.30;;
17369;SDS011;8802;52.402;4.920;2023-12-22T13:03:31;12.70;;;2.60;;
17369;SDS011;8802;52.402;4.920;2023-12-22T13:06:05;9.13;;;2.08;;
17369;SDS011;8802;52.402;4.920;2023-12-22T13:08:33;12.35;;;2.53;;
17369;SDS011;8802;52.402;4.920;2023-12-22T13:11:01;11.20;;;2.55;;
17369;SDS011;8802;52.402;4.920;2023-12-22T13:13:28;8.13;;;1.85;;
17369;SDS011;8802;52.402;4.920;2023-12-22T13:15:55;10.82;;;2.50;;
17369;SDS011;8802;52.402;4.920;2023-12-22T13:18:22;12.02;;;2.22;;
17369;SDS011;8802;52.402;4.920;2023-12-22T13:20:49;12.88;;;2.47;;
17369;SDS011;8802;52.402;4.920;2023-12-22T13:23:16;11.05;;;2.30;;
17369;SDS011;8802;52.402;4.920;2023-12-22T13:25:44;12.52;;;2.58;;
17369;SDS011;8802;52.402;4.920;2023-12-22T13:28:13;8.73;;;2.20;;
17369;SDS011;8802;52.402;4.920;2023-12-22T13:30:39;9.50;;;2.03;;
17369;SDS011;8802;52.402;4.920;2023-12-22T13:33:06;10.85;;;2.63;;
17369;SDS011;8802;52.402;4.920;2023-12-22T13:35:34;10.73;;;2.50;;
17369;SDS011;8802;52.402;4.920;2023-12-22T13:38:02;10.80;;;2.50;;
17369;SDS011;8802;52.402;4.920;2023-12-22T13:40:31;9.32;;;2.00;;
17369;SDS011;8802;52.402;4.920;2023-12-22T13:42:58;13.57;;;2.97;;
17369;SDS011;8802;52.402;4.920;2023-12-22T13:45:28;14.05;;;2.92;;
17369;SDS011;8802;52.402;4.920;2023-12-22T13:47:57;11.52;;;2.30;;
17369;SDS011;8802;52.402;4.920;2023-12-22T13:50:24;12.85;;;2.88;;
17369;SDS011;8802;52.402;4.920;2023-12-22T13:52:51;10.70;;;2.60;;
17369;SDS011;8802;52.402;4.920;2023-12-22T13:55:18;12.77;;;3.05;;
17369;SDS011;8802;52.402;4.920;2023-12-22T13:57:47;15.93;;;2.95;;
17369;SDS011;8802;52.402;4.920;2023-12-22T14:00:24;14.07;;;2.95;;
17369;SDS011;8802;52.402;4.920;2023-12-22T14:02:52;16.95;;;2.65;;
17369;SDS011;8802;52.402;4.920;2023-12-22T14:05:19;14.45;;;2.63;;
17369;SDS011;8802;52.402;4.920;2023-12-22T14:07:46;14.02;;;3.08;;
17369;SDS011;8802;52.402;4.920;2023-12-22T14:10:14;14.85;;;3.00;;
17369;SDS011;8802;52.402;4.920;2023-12-22T14:12:42;8.20;;;2.53;;
17369;SDS011;8802;52.402;4.920;2023-12-22T14:15:09;15.85;;;2.90;;
17369;SDS011;8802;52.402;4.920;2023-12-22T14:17:36;14.52;;;2.35;;
17369;SDS011;8802;52.402;4.920;2023-12-22T14:20:05;14.35;;;2.88;;
17369;SDS011;8802;52.402;4.920;2023-12-22T14:22:34;12.60;;;2.72;;
17369;SDS011;8802;52.402;4.920;2023-12-22T14:25:02;13.88;;;2.72;;
17369;SDS011;8802;52.402;4.920;2023-12-22T14:27:29;14.70;;;2.97;;
17369;SDS011;8802;52.402;4.920;2023-12-22T14:29:56;16.30;;;3.05;;
17369;SDS011;8802;52.402;4.920;2023-12-22T14:32:23;13.32;;;3.20;;
17369;SDS011;8802;52.402;4.920;2023-12-22T14:34:50;14.63;;;3.15;;
17369;SDS011;8802;52.402;4.920;2023-12-22T14:37:19;19.33;;;3.53;;
17369;SDS011;8802;52.402;4.920;2023-12-22T14:39:46;12.05;;;2.92;;
17369;SDS011;8802;52.402;4.920;2023-12-22T14:42:13;13.88;;;3.20;;
17369;SDS011;8802;52.402;4.920;2023-12-22T14:44:40;17.65;;;3.15;;
17369;SDS011;8802;52.402;4.920;2023-12-22T14:47:07;16.48;;;3.38;;
17369;SDS011;8802;52.402;4.920;2023-12-22T14:49:34;14.90;;;3.03;;
17369;SDS011;8802;52.402;4.920;2023-12-22T14:52:01;14.80;;;3.17;;
17369;SDS011;8802;52.402;4.920;2023-12-22T14:54:29;15.85;;;3.65;;